createdAt,value
2022-11-05T00:02:15.974Z,101836.00
2022-11-05T00:05:04.411Z,101840.00
2022-11-05T00:07:56.705Z,101842.00
2022-11-05T00:10:35.468Z,101846.00
2022-11-05T00:13:27.770Z,101836.00
2022-11-05T00:16:28.972Z,101844.00
2022-11-05T00:19:07.630Z,101842.00
2022-11-05T00:21:56.411Z,101831.00
2022-11-05T00:24:43.621Z,101832.00
2022-11-05T00:27:14.245Z,101828.00
2022-11-05T00:29:43.300Z,101835.00
2022-11-05T00:32:11.972Z,101833.00
2022-11-05T00:34:41.168Z,101835.00
2022-11-05T00:37:09.864Z,101838.00
2022-11-05T00:39:38.950Z,101828.00
2022-11-05T00:42:24.902Z,101829.00
2022-11-05T00:45:02.102Z,101825.00
2022-11-05T00:47:52.908Z,101832.00
2022-11-05T00:50:24.154Z,101830.00
2022-11-05T00:52:58.032Z,101827.00
2022-11-05T00:55:35.284Z,101839.00
2022-11-05T00:58:06.737Z,101836.00
2022-11-05T01:00:40.883Z,101833.00
2022-11-05T01:03:20.170Z,101835.00
2022-11-05T01:05:51.657Z,101843.00
2022-11-05T01:08:23.733Z,101841.00
2022-11-05T01:10:56.276Z,101857.00
2022-11-05T01:13:29.648Z,101862.00
2022-11-05T01:16:05.727Z,101853.00
2022-11-05T01:18:34.513Z,101849.00
2022-11-05T01:21:12.783Z,101847.00
2022-11-05T01:23:41.518Z,101843.00
2022-11-05T01:26:10.531Z,101837.00
2022-11-05T01:28:39.345Z,101840.00
2022-11-05T01:31:09.586Z,101844.00
2022-11-05T01:33:38.297Z,101847.00
2022-11-05T01:36:07.874Z,101846.00
2022-11-05T01:38:36.560Z,101848.00
2022-11-05T01:41:05.503Z,101842.00
2022-11-05T01:43:49.770Z,101849.00
2022-11-05T01:46:26.595Z,101845.00
2022-11-05T01:49:03.272Z,101850.00
2022-11-05T01:51:33.403Z,101854.00
2022-11-05T01:54:08.161Z,101846.00
2022-11-05T01:56:42.662Z,101846.00
2022-11-05T01:59:17.628Z,101857.00
2022-11-05T02:01:48.234Z,101859.00
2022-11-05T02:04:25.518Z,101855.00
2022-11-05T02:06:58.422Z,101857.00
2022-11-05T02:09:33.244Z,101859.00
2022-11-05T02:12:02.963Z,101854.00
2022-11-05T02:14:34.322Z,101856.00
2022-11-05T02:17:15.036Z,101849.00
2022-11-05T02:20:20.358Z,101860.00
2022-11-05T02:23:45.945Z,101850.00
2022-11-05T02:27:05.545Z,101851.00
2022-11-05T02:30:19.892Z,101842.00
2022-11-05T02:33:25.051Z,101839.00
2022-11-05T02:36:10.312Z,101831.00
2022-11-05T02:38:48.864Z,101827.00
2022-11-05T02:41:31.615Z,101828.00
2022-11-05T02:44:16.017Z,101833.00
2022-11-05T02:46:59.787Z,101833.00
2022-11-05T02:49:45.927Z,101830.00
2022-11-05T02:52:26.650Z,101843.00
2022-11-05T02:55:04.799Z,101836.00
2022-11-05T02:57:37.936Z,101840.00
2022-11-05T03:00:25.193Z,101841.00
2022-11-05T03:02:55.196Z,101842.00
2022-11-05T03:05:47.222Z,101846.00
2022-11-05T03:08:33.245Z,101849.00
2022-11-05T03:11:15.486Z,101848.00
2022-11-05T03:13:55.436Z,101848.00
2022-11-05T03:16:37.293Z,101848.00
2022-11-05T03:19:22.352Z,101844.00
2022-11-05T03:22:24.293Z,101839.00
2022-11-05T03:25:10.726Z,101836.00
2022-11-05T03:27:44.366Z,101841.00
2022-11-05T03:30:20.387Z,101838.00
2022-11-05T03:33:05.921Z,101845.00
2022-11-05T03:35:41.581Z,101845.00
2022-11-05T03:38:18.394Z,101839.00
2022-11-05T03:41:17.221Z,101857.00
2022-11-05T03:43:51.609Z,101860.00
2022-11-05T03:46:29.631Z,101854.00
2022-11-05T03:49:04.159Z,101850.00
2022-11-05T03:51:45.351Z,101850.00
2022-11-05T03:54:16.162Z,101853.00
2022-11-05T03:56:57.118Z,101855.00
2022-11-05T03:59:26.803Z,101856.00
2022-11-05T04:01:58.961Z,101862.00
2022-11-05T04:04:32.027Z,101864.00
2022-11-05T04:07:18.218Z,101873.00
2022-11-05T04:13:28.647Z,101864.00
2022-11-05T04:16:15.916Z,101870.00
2022-11-05T04:18:46.651Z,101861.00
2022-11-05T04:21:34.099Z,101869.00
2022-11-05T04:24:12.900Z,101870.00
2022-11-05T04:26:47.553Z,101857.00
2022-11-05T04:29:35.518Z,101864.00
2022-11-05T04:32:06.129Z,101870.00
2022-11-05T04:34:34.882Z,101869.00
2022-11-05T04:37:06.302Z,101869.00
2022-11-05T04:39:38.640Z,101871.00
2022-11-05T04:42:37.706Z,101875.00
2022-11-05T04:45:18.017Z,101879.00
2022-11-05T04:48:14.161Z,101878.00
2022-11-05T04:50:43.459Z,101881.00
2022-11-05T04:53:15.114Z,101881.00
2022-11-05T04:55:45.402Z,101885.00
2022-11-05T04:58:20.173Z,101884.00
2022-11-05T05:00:51.223Z,101879.00
2022-11-05T05:03:20.026Z,101874.00
2022-11-05T05:05:51.836Z,101873.00
2022-11-05T05:08:22.550Z,101880.00
2022-11-05T05:10:53.497Z,101880.00
2022-11-05T05:13:23.886Z,101884.00
2022-11-05T05:15:55.525Z,101881.00
2022-11-05T05:21:36.463Z,101891.00
2022-11-05T05:24:08.808Z,101889.00
2022-11-05T05:26:47.972Z,101886.00
2022-11-05T05:29:19.338Z,101883.00
2022-11-05T05:31:48.499Z,101877.00
2022-11-05T05:34:25.767Z,101860.00
2022-11-05T05:37:28.289Z,101870.00
2022-11-05T05:39:59.642Z,101864.00
2022-11-05T05:42:28.636Z,101862.00
2022-11-05T05:45:03.996Z,101875.00
2022-11-05T05:47:33.293Z,101863.00
2022-11-05T05:50:02.982Z,101874.00
2022-11-05T05:52:43.572Z,101882.00
2022-11-05T05:55:17.228Z,101882.00
2022-11-05T05:57:50.271Z,101885.00
2022-11-05T06:00:24.127Z,101885.00
2022-11-05T06:02:56.409Z,101886.00
2022-11-05T06:05:27.220Z,101898.00
2022-11-05T06:08:03.257Z,101899.00
2022-11-05T06:10:32.563Z,101896.00
2022-11-05T06:13:14.591Z,101891.00
2022-11-05T06:15:45.023Z,101890.00
2022-11-05T06:18:13.634Z,101899.00
2022-11-05T06:20:42.347Z,101897.00
2022-11-05T06:23:13.094Z,101905.00
2022-11-05T06:25:49.214Z,101902.00
2022-11-05T06:28:21.061Z,101911.00
2022-11-05T06:31:06.817Z,101905.00
2022-11-05T06:33:35.840Z,101912.00
2022-11-05T06:36:07.789Z,101911.00
2022-11-05T06:38:38.804Z,101918.00
2022-11-05T06:41:10.545Z,101919.00
2022-11-05T06:43:40.164Z,101922.00
2022-11-05T06:46:12.454Z,101921.00
2022-11-05T06:48:41.812Z,101913.00
2022-11-05T06:51:11.171Z,101915.00
2022-11-05T06:53:39.966Z,101916.00
2022-11-05T06:56:10.268Z,101909.00
2022-11-05T06:58:39.322Z,101905.00
2022-11-05T07:01:11.906Z,101914.00
2022-11-05T07:03:40.905Z,101908.00
2022-11-05T07:06:09.916Z,101915.00
2022-11-05T07:08:39.725Z,101913.00
2022-11-05T07:11:08.467Z,101915.00
2022-11-05T07:13:37.350Z,101911.00
2022-11-05T07:16:06.894Z,101918.00
2022-11-05T07:18:37.124Z,101924.00
2022-11-05T07:21:06.228Z,101915.00
2022-11-05T07:23:34.911Z,101918.00
2022-11-05T07:26:03.982Z,101919.00
2022-11-05T07:28:32.710Z,101931.00
2022-11-05T07:31:01.398Z,101919.00
2022-11-05T07:33:36.150Z,101919.00
2022-11-05T07:36:07.853Z,101913.00
2022-11-05T07:38:36.692Z,101911.00
2022-11-05T07:41:05.753Z,101909.00
2022-11-05T07:43:34.418Z,101910.00
2022-11-05T07:46:03.166Z,101918.00
2022-11-05T07:48:31.732Z,101921.00
2022-11-05T07:51:00.359Z,101929.00
2022-11-05T07:53:30.475Z,101917.00
2022-11-05T07:55:59.499Z,101925.00
2022-11-05T07:58:28.364Z,101917.00
2022-11-05T08:00:58.990Z,101919.00
2022-11-05T08:03:27.869Z,101907.00
2022-11-05T08:05:56.935Z,101923.00
2022-11-05T08:08:25.689Z,101922.00
2022-11-05T08:10:56.057Z,101918.00
2022-11-05T08:13:25.060Z,101921.00
2022-11-05T08:15:54.035Z,101911.00
2022-11-05T08:18:22.881Z,101919.00
2022-11-05T08:20:51.708Z,101912.00
2022-11-05T08:23:20.462Z,101912.00
2022-11-05T08:25:49.304Z,101914.00
2022-11-05T08:28:22.154Z,101912.00
2022-11-05T08:30:52.221Z,101924.00
2022-11-05T08:33:22.347Z,101915.00
2022-11-05T08:35:51.926Z,101916.00
2022-11-05T08:38:21.714Z,101918.00
2022-11-05T08:40:57.652Z,101918.00
2022-11-05T08:43:27.982Z,101922.00
2022-11-05T08:45:56.983Z,101924.00
2022-11-05T08:48:25.723Z,101912.00
2022-11-05T08:50:54.681Z,101915.00
2022-11-05T08:53:23.478Z,101907.00
2022-11-05T08:55:55.370Z,101920.00
2022-11-05T08:58:24.295Z,101915.00
2022-11-05T09:00:56.075Z,101907.00
2022-11-05T09:03:27.868Z,101895.00
2022-11-05T09:05:56.787Z,101895.00
2022-11-05T09:08:25.549Z,101902.00
2022-11-05T09:10:54.527Z,101905.00
2022-11-05T09:13:23.824Z,101899.00
2022-11-05T09:15:54.620Z,101888.00
2022-11-05T09:18:23.455Z,101892.00
2022-11-05T09:20:52.978Z,101878.00
2022-11-05T09:23:22.454Z,101885.00
2022-11-05T09:25:53.167Z,101886.00
2022-11-05T09:28:24.718Z,101885.00
2022-11-05T09:30:55.351Z,101882.00
2022-11-05T09:33:28.160Z,101882.00
2022-11-05T09:36:00.480Z,101881.00
2022-11-05T09:38:35.010Z,101890.00
2022-11-05T09:41:08.878Z,101885.00
2022-11-05T09:43:43.345Z,101875.00
2022-11-05T09:46:23.636Z,101878.00
2022-11-05T09:48:58.908Z,101878.00
2022-11-05T09:51:27.753Z,101879.00
2022-11-05T09:54:00.692Z,101875.00
2022-11-05T09:56:35.240Z,101875.00
2022-11-05T09:59:14.917Z,101874.00
2022-11-05T10:01:46.188Z,101871.00
2022-11-05T10:04:20.058Z,101886.00
2022-11-05T10:06:55.508Z,101881.00
2022-11-05T10:09:32.598Z,101889.00
2022-11-05T10:12:08.963Z,101882.00
2022-11-05T10:14:44.268Z,101879.00
2022-11-05T10:17:24.569Z,101886.00
2022-11-05T10:20:01.160Z,101873.00
2022-11-05T10:22:30.408Z,101874.00
2022-11-05T10:24:59.476Z,101874.00
2022-11-05T10:27:34.797Z,101872.00
2022-11-05T10:30:03.793Z,101882.00
2022-11-05T10:32:39.713Z,101878.00
2022-11-05T10:35:14.535Z,101885.00
2022-11-05T10:37:43.429Z,101879.00
2022-11-05T10:40:21.088Z,101888.00
2022-11-05T10:43:03.548Z,101897.00
2022-11-05T10:45:47.882Z,101893.00
2022-11-05T10:49:07.944Z,101893.00
2022-11-05T10:51:37.419Z,101885.00
2022-11-05T10:54:17.627Z,101897.00
2022-11-05T10:56:46.758Z,101891.00
2022-11-05T10:59:24.376Z,101893.00
2022-11-05T11:02:03.350Z,101889.00
2022-11-05T11:04:37.918Z,101886.00
2022-11-05T11:07:23.574Z,101882.00
2022-11-05T11:09:54.205Z,101885.00
2022-11-05T11:12:27.663Z,101886.00
2022-11-05T11:15:04.171Z,101890.00
2022-11-05T11:17:34.475Z,101884.00
2022-11-05T11:20:23.765Z,101879.00
2022-11-05T11:23:13.972Z,101878.00
2022-11-05T11:25:54.014Z,101876.00
2022-11-05T11:28:26.922Z,101877.00
2022-11-05T11:31:06.162Z,101877.00
2022-11-05T11:33:37.934Z,101883.00
2022-11-05T11:36:11.952Z,101884.00
2022-11-05T11:38:41.993Z,101886.00
2022-11-05T11:41:28.084Z,101886.00
2022-11-05T11:44:02.607Z,101886.00
2022-11-05T11:46:35.447Z,101888.00
2022-11-05T11:49:07.170Z,101883.00
2022-11-05T11:51:40.886Z,101888.00
2022-11-05T11:54:29.300Z,101880.00
2022-11-05T11:56:58.538Z,101880.00
2022-11-05T12:00:01.869Z,101892.00
2022-11-05T12:03:01.899Z,101891.00
2022-11-05T12:05:42.008Z,101884.00
2022-11-05T12:08:52.257Z,101885.00
2022-11-05T12:11:30.768Z,101888.00
2022-11-05T12:14:23.119Z,101881.00
2022-11-05T12:17:20.248Z,101887.00
2022-11-05T12:20:11.023Z,101877.00
2022-11-05T12:23:08.697Z,101883.00
2022-11-05T12:25:50.449Z,101875.00
2022-11-05T12:29:17.738Z,101861.00
2022-11-05T12:32:04.217Z,101881.00
2022-11-05T12:34:52.870Z,101861.00
2022-11-05T12:37:35.131Z,101876.00
2022-11-05T12:40:38.560Z,101877.00
2022-11-05T12:43:26.664Z,101872.00
2022-11-05T12:46:10.484Z,101862.00
2022-11-05T12:49:02.757Z,101865.00
2022-11-05T12:51:56.764Z,101853.00
2022-11-05T12:54:50.650Z,101852.00
2022-11-05T12:57:21.389Z,101852.00
2022-11-05T12:59:59.479Z,101854.00
2022-11-05T13:02:40.295Z,101855.00
2022-11-05T13:05:21.516Z,101839.00
2022-11-05T13:08:00.891Z,101849.00
2022-11-05T13:10:36.603Z,101844.00
2022-11-05T13:13:17.783Z,101855.00
2022-11-05T13:15:55.086Z,101856.00
2022-11-05T13:18:41.049Z,101853.00
2022-11-05T13:21:14.929Z,101853.00
2022-11-05T13:23:53.988Z,101861.00
2022-11-05T13:26:34.566Z,101858.00
2022-11-05T13:29:11.658Z,101869.00
2022-11-05T13:31:50.089Z,101861.00
2022-11-05T13:34:18.931Z,101859.00
2022-11-05T13:37:12.324Z,101869.00
2022-11-05T13:39:51.062Z,101870.00
2022-11-05T13:42:55.771Z,101857.00
2022-11-05T13:46:09.745Z,101865.00
2022-11-05T13:49:40.216Z,101851.00
2022-11-05T13:52:46.172Z,101861.00
2022-11-05T13:55:58.442Z,101840.00
2022-11-05T13:59:18.146Z,101831.00
2022-11-05T14:01:52.043Z,101848.00
2022-11-05T14:04:32.660Z,101846.00
2022-11-05T14:07:12.352Z,101853.00
2022-11-05T14:09:43.907Z,101857.00
2022-11-05T14:12:25.824Z,101854.00
2022-11-05T14:15:02.242Z,101847.00
2022-11-05T14:17:56.790Z,101863.00
2022-11-05T14:20:43.820Z,101860.00
2022-11-05T14:23:52.445Z,101874.00
2022-11-05T14:26:24.983Z,101869.00
2022-11-05T14:29:26.617Z,101869.00
2022-11-05T14:32:24.906Z,101852.00
2022-11-05T14:35:02.406Z,101845.00
2022-11-05T14:37:37.649Z,101846.00
2022-11-05T14:40:36.357Z,101839.00
2022-11-05T14:43:17.417Z,101821.00
2022-11-05T14:45:58.438Z,101840.00
2022-11-05T14:48:40.769Z,101825.00
2022-11-05T14:51:27.763Z,101821.00
2022-11-05T14:54:06.055Z,101819.00
2022-11-05T14:56:53.211Z,101828.00
2022-11-05T14:59:56.982Z,101824.00
2022-11-05T15:02:33.838Z,101812.00
2022-11-05T15:05:41.488Z,101797.00
2022-11-05T15:08:38.654Z,101798.00
2022-11-05T15:11:24.478Z,101796.00
2022-11-05T15:14:05.799Z,101801.00
2022-11-05T15:16:42.326Z,101805.00
2022-11-05T15:19:21.697Z,101796.00
2022-11-05T15:21:52.518Z,101788.00
2022-11-05T15:24:23.021Z,101788.00
2022-11-05T15:27:04.884Z,101793.00
2022-11-05T15:29:34.904Z,101788.00
2022-11-05T15:32:04.006Z,101790.00
2022-11-05T15:34:35.812Z,101784.00
2022-11-05T15:37:27.236Z,101784.00
2022-11-05T15:39:57.821Z,101787.00
2022-11-05T15:42:29.279Z,101796.00
2022-11-05T15:45:00.270Z,101789.00
2022-11-05T15:47:31.310Z,101790.00
2022-11-05T15:50:02.622Z,101785.00
2022-11-05T15:52:36.646Z,101781.00
2022-11-05T15:55:19.213Z,101791.00
2022-11-05T15:57:52.764Z,101789.00
2022-11-05T16:00:25.432Z,101783.00
2022-11-05T16:02:59.397Z,101781.00
2022-11-05T16:05:34.362Z,101774.00
2022-11-05T16:08:05.444Z,101778.00
2022-11-05T16:10:38.127Z,101786.00
2022-11-05T16:13:36.052Z,101788.00
2022-11-05T16:16:08.198Z,101794.00
2022-11-05T16:18:39.074Z,101795.00
2022-11-05T16:21:11.060Z,101782.00
2022-11-05T16:23:46.857Z,101790.00
2022-11-05T16:29:33.572Z,101779.00
2022-11-05T16:32:05.911Z,101777.00
2022-11-05T16:34:40.648Z,101781.00
2022-11-05T16:37:16.371Z,101777.00
2022-11-05T16:39:45.504Z,101776.00
2022-11-05T16:42:41.676Z,101767.00
2022-11-05T16:45:15.166Z,101778.00
2022-11-05T16:47:46.379Z,101764.00
2022-11-05T16:50:24.045Z,101772.00
2022-11-05T16:52:54.099Z,101762.00
2022-11-05T16:55:23.407Z,101762.00
2022-11-05T16:57:56.260Z,101772.00
2022-11-05T17:00:27.029Z,101767.00
2022-11-05T17:02:56.612Z,101761.00
2022-11-05T17:05:29.346Z,101748.00
2022-11-05T17:08:00.833Z,101741.00
2022-11-05T17:10:31.530Z,101745.00
2022-11-05T17:13:00.717Z,101747.00
2022-11-05T17:15:35.830Z,101741.00
2022-11-05T17:18:08.014Z,101741.00
2022-11-05T17:20:41.765Z,101743.00
2022-11-05T17:23:12.659Z,101748.00
2022-11-05T17:25:42.745Z,101733.00
2022-11-05T17:28:16.796Z,101744.00
2022-11-05T17:30:52.940Z,101744.00
2022-11-05T17:33:25.192Z,101737.00
2022-11-05T17:35:55.657Z,101743.00
2022-11-05T17:38:29.012Z,101740.00
2022-11-05T17:40:58.244Z,101741.00
2022-11-05T17:43:27.685Z,101726.00
2022-11-05T17:46:04.311Z,101728.00
2022-11-05T17:48:34.183Z,101724.00
2022-11-05T17:51:03.449Z,101727.00
2022-11-05T17:53:34.260Z,101735.00
2022-11-05T17:56:06.768Z,101733.00
2022-11-05T17:58:36.291Z,101736.00
2022-11-05T18:01:08.398Z,101734.00
2022-11-05T18:03:38.120Z,101732.00
2022-11-05T18:06:08.802Z,101732.00
2022-11-05T18:08:38.380Z,101733.00
2022-11-05T18:11:09.493Z,101729.00
2022-11-05T18:13:44.107Z,101719.00
2022-11-05T18:16:19.565Z,101710.00
2022-11-05T18:18:54.213Z,101708.00
2022-11-05T18:21:27.506Z,101705.00
2022-11-05T18:23:57.246Z,101696.00
2022-11-05T18:26:29.001Z,101702.00
2022-11-05T18:28:58.226Z,101700.00
2022-11-05T18:31:33.940Z,101701.00
2022-11-05T18:34:10.923Z,101692.00
2022-11-05T18:36:45.956Z,101692.00
2022-11-05T18:39:22.218Z,101686.00
2022-11-05T18:41:51.993Z,101697.00
2022-11-05T18:44:23.124Z,101690.00
2022-11-05T18:46:58.422Z,101704.00
2022-11-05T18:49:30.365Z,101709.00
2022-11-05T18:52:02.474Z,101694.00
2022-11-05T18:54:34.237Z,101695.00
2022-11-05T18:57:06.186Z,101703.00
2022-11-05T18:59:38.805Z,101705.00
2022-11-05T19:02:12.827Z,101704.00
2022-11-05T19:04:55.320Z,101708.00
2022-11-05T19:07:33.531Z,101712.00
2022-11-05T19:10:02.838Z,101719.00
2022-11-05T19:12:34.578Z,101703.00
2022-11-05T19:15:04.087Z,101711.00
2022-11-05T19:17:36.536Z,101712.00
2022-11-05T19:20:08.076Z,101707.00
2022-11-05T19:22:37.785Z,101717.00
2022-11-05T19:25:08.854Z,101725.00
2022-11-05T19:27:39.557Z,101721.00
2022-11-05T19:30:09.957Z,101719.00
2022-11-05T19:32:43.922Z,101720.00
2022-11-05T19:35:13.021Z,101711.00
2022-11-05T19:37:47.784Z,101707.00
2022-11-05T19:40:17.055Z,101711.00
2022-11-05T19:42:46.355Z,101702.00
2022-11-05T19:45:38.360Z,101712.00
2022-11-05T19:48:16.151Z,101712.00
2022-11-05T19:50:48.269Z,101720.00
2022-11-05T19:53:17.674Z,101702.00
2022-11-05T19:55:47.298Z,101707.00
2022-11-05T19:58:16.725Z,101715.00
2022-11-05T20:00:46.089Z,101710.00
2022-11-05T20:03:16.955Z,101715.00
2022-11-05T20:05:46.242Z,101719.00
2022-11-05T20:08:15.559Z,101728.00
2022-11-05T20:10:44.847Z,101724.00
2022-11-05T20:13:20.120Z,101718.00
2022-11-05T20:15:49.901Z,101718.00
2022-11-05T20:18:20.816Z,101714.00
2022-11-05T20:20:55.308Z,101719.00
2022-11-05T20:23:24.489Z,101709.00
2022-11-05T20:25:56.033Z,101711.00
2022-11-05T20:28:25.890Z,101703.00
2022-11-05T20:30:57.504Z,101701.00
2022-11-05T20:33:28.858Z,101699.00
2022-11-05T20:36:03.481Z,101700.00
2022-11-05T20:38:32.981Z,101700.00
2022-11-05T20:41:07.490Z,101706.00
2022-11-05T20:43:37.251Z,101695.00
2022-11-05T20:46:06.961Z,101697.00
2022-11-05T20:48:37.836Z,101702.00
2022-11-05T20:51:10.029Z,101693.00
2022-11-05T20:53:41.767Z,101690.00
2022-11-05T20:56:18.188Z,101694.00
2022-11-05T20:58:47.555Z,101681.00
2022-11-05T21:01:17.353Z,101677.00
2022-11-05T21:03:51.908Z,101672.00
2022-11-05T21:06:21.391Z,101674.00
2022-11-05T21:08:52.409Z,101671.00
2022-11-05T21:11:22.395Z,101678.00
2022-11-05T21:13:51.428Z,101682.00
2022-11-05T21:16:22.071Z,101679.00
2022-11-05T21:18:55.255Z,101672.00
2022-11-05T21:21:24.547Z,101681.00
2022-11-05T21:23:53.696Z,101685.00
2022-11-05T21:26:23.003Z,101675.00
2022-11-05T21:28:52.254Z,101680.00
2022-11-05T21:31:21.280Z,101693.00
2022-11-05T21:33:55.201Z,101691.00
2022-11-05T21:36:24.786Z,101692.00
2022-11-05T21:38:53.737Z,101694.00
2022-11-05T21:41:22.719Z,101700.00
2022-11-05T21:43:51.737Z,101702.00
2022-11-05T21:46:39.007Z,101695.00
2022-11-05T21:49:13.778Z,101691.00
2022-11-05T21:52:06.507Z,101689.00
2022-11-05T21:54:52.964Z,101687.00
2022-11-05T21:57:39.293Z,101686.00
2022-11-05T22:00:13.393Z,101682.00
2022-11-05T22:02:45.380Z,101677.00
2022-11-05T22:05:17.101Z,101671.00
2022-11-05T22:07:47.214Z,101677.00
2022-11-05T22:10:19.769Z,101672.00
2022-11-05T22:12:50.567Z,101660.00
2022-11-05T22:15:20.719Z,101664.00
2022-11-05T22:17:53.192Z,101658.00
2022-11-05T22:20:28.074Z,101658.00
2022-11-05T22:22:58.490Z,101660.00
2022-11-05T22:25:27.395Z,101657.00
2022-11-05T22:27:56.144Z,101651.00
2022-11-05T22:30:25.293Z,101652.00
2022-11-05T22:32:54.001Z,101653.00
2022-11-05T22:35:26.803Z,101637.00
2022-11-05T22:37:59.289Z,101637.00
2022-11-05T22:40:28.423Z,101629.00
2022-11-05T22:42:57.267Z,101640.00
2022-11-05T22:45:25.979Z,101627.00
2022-11-05T22:47:54.641Z,101616.00
2022-11-05T22:50:25.203Z,101616.00
2022-11-05T22:52:58.991Z,101601.00
2022-11-05T22:55:28.443Z,101587.00
2022-11-05T22:57:58.840Z,101589.00
2022-11-05T23:00:40.328Z,101589.00
2022-11-05T23:03:09.691Z,101585.00
2022-11-05T23:05:41.724Z,101585.00
2022-11-05T23:08:29.073Z,101576.00
2022-11-05T23:11:16.194Z,101573.00
2022-11-05T23:13:46.354Z,101573.00
2022-11-05T23:16:33.822Z,101579.00
2022-11-05T23:19:24.741Z,101569.00
2022-11-05T23:22:12.075Z,101559.00
2022-11-05T23:24:40.717Z,101572.00
2022-11-05T23:27:10.532Z,101575.00
2022-11-05T23:29:39.234Z,101564.00
2022-11-05T23:32:24.876Z,101565.00
2022-11-05T23:34:54.209Z,101571.00
2022-11-05T23:37:45.130Z,101569.00
2022-11-05T23:40:26.355Z,101562.00
2022-11-05T23:43:13.268Z,101567.00
2022-11-05T23:46:01.271Z,101556.00
2022-11-05T23:48:33.472Z,101559.00
2022-11-05T23:51:05.672Z,101554.00
2022-11-05T23:53:40.073Z,101544.00
2022-11-05T23:56:11.638Z,101539.00
2022-11-05T23:58:41.871Z,101544.00
